Time,TemperatureF,DewpointF,PressureIn,WindDirection,WindDirectionDegrees,WindSpeedMPH,WindSpeedGustMPH,Humidity,HourlyPrecipIn,Conditions,Clouds,dailyrainin,SoftwareType,DateUTC
2013-02-21 00:02:00,34.6,32.5,29.94,South,185,0.0,0.0,92,0.00,,FEW,0.00,VWS V14.01,2013-02-21 08:02:00,
2013-02-21 00:07:00,34.7,32.6,29.94,South,185,0.0,0.0,92,0.00,,FEW,0.00,VWS V14.01,2013-02-21 08:07:00,
2013-02-21 00:12:00,34.9,32.8,29.94,South,185,0.0,0.0,92,0.00,,FEW,0.00,VWS V14.01,2013-02-21 08:12:00,
2013-02-21 00:17:00,35.0,33.2,29.94,South,185,0.0,0.0,93,0.00,,FEW,0.00,VWS V14.01,2013-02-21 08:17:00,
2013-02-21 00:22:00,35.0,33.2,29.94,South,185,0.0,0.0,93,0.00,,FEW,0.00,VWS V14.01,2013-02-21 08:22:00,
2013-02-21 00:27:00,35.2,33.4,29.94,South,186,0.0,0.0,93,0.00,,FEW,0.00,VWS V14.01,2013-02-21 08:27:00,
2013-02-21 00:32:00,35.3,33.5,29.95,South,185,0.0,0.0,93,0.00,,FEW,0.00,VWS V14.01,2013-02-21 08:32:00,
2013-02-21 00:37:00,35.5,33.7,29.95,South,185,0.0,0.0,93,0.00,,FEW,0.00,VWS V14.01,2013-02-21 08:37:00,
2013-02-21 00:42:00,35.5,33.7,29.95,South,185,0.0,0.0,93,0.00,,FEW,0.00,VWS V14.01,2013-02-21 08:42:00,
2013-02-21 00:47:00,35.5,33.7,29.94,South,185,0.0,0.0,93,0.00,,FEW,0.00,VWS V14.01,2013-02-21 08:47:00,
2013-02-21 00:52:00,35.5,33.7,29.94,South,185,0.0,0.0,93,0.00,,FEW,0.00,VWS V14.01,2013-02-21 08:52:00,
2013-02-21 00:57:00,35.5,33.7,29.94,South,185,0.0,0.0,93,0.00,,FEW,0.00,VWS V14.01,2013-02-21 08:57:00,
2013-02-21 01:02:00,35.5,33.7,29.95,South,185,0.0,0.0,93,0.00,,FEW,0.00,VWS V14.01,2013-02-21 09:02:00,
2013-02-21 01:07:00,35.5,33.7,29.95,South,185,0.0,0.0,93,0.00,,FEW,0.00,VWS V14.01,2013-02-21 09:07:00,
2013-02-21 01:12:00,35.5,33.7,29.95,South,185,0.0,0.0,93,0.00,,FEW,0.00,VWS V14.01,2013-02-21 09:12:00,
2013-02-21 01:17:00,35.6,33.8,29.96,South,185,0.0,0.0,93,0.00,,FEW,0.00,VWS V14.01,2013-02-21 09:17:00,
2013-02-21 01:22:00,35.6,34.0,29.96,South,185,0.0,0.0,94,0.00,,FEW,0.00,VWS V14.01,2013-02-21 09:22:00,
2013-02-21 01:27:00,35.8,34.2,29.96,South,185,0.0,0.0,94,0.00,,FEW,0.00,VWS V14.01,2013-02-21 09:27:00,
2013-02-21 01:32:00,35.8,34.2,29.96,South,185,0.0,0.0,94,0.00,,FEW,0.00,VWS V14.01,2013-02-21 09:32:00,
2013-02-21 01:37:00,35.8,34.2,29.96,South,185,0.0,0.0,94,0.00,,FEW,0.00,VWS V14.01,2013-02-21 09:37:00,
2013-02-21 01:42:00,35.9,34.3,29.96,South,185,0.0,0.0,94,0.00,,FEW,0.00,VWS V14.01,2013-02-21 09:42:00,
2013-02-21 01:47:00,35.9,34.3,29.97,South,185,0.0,0.0,94,0.00,,FEW,0.00,VWS V14.01,2013-02-21 09:47:00,
2013-02-21 01:52:00,35.9,34.3,29.97,South,185,0.0,0.0,94,0.00,,FEW,0.00,VWS V14.01,2013-02-21 09:52:00,
2013-02-21 01:57:00,35.9,34.3,29.97,South,185,0.0,0.0,94,0.00,,FEW,0.00,VWS V14.01,2013-02-21 09:57:00,
2013-02-21 02:02:00,35.9,34.3,29.96,South,185,0.0,0.0,94,0.00,,FEW,0.00,VWS V14.01,2013-02-21 10:02:00,
2013-02-21 02:07:00,35.9,34.3,29.96,South,185,0.0,0.0,94,0.00,,FEW,0.00,VWS V14.01,2013-02-21 10:07:00,
2013-02-21 02:12:00,35.8,34.2,29.96,South,185,0.0,0.0,94,0.00,,FEW,0.00,VWS V14.01,2013-02-21 10:12:00,
2013-02-21 02:17:00,35.8,34.2,29.98,South,185,0.0,0.0,94,0.00,,FEW,0.00,VWS V14.01,2013-02-21 10:17:00,
2013-02-21 02:22:00,35.9,34.3,29.98,South,185,0.0,0.0,94,0.00,,FEW,0.00,VWS V14.01,2013-02-21 10:22:00,
2013-02-21 02:27:00,35.9,34.3,29.98,South,185,0.0,0.0,94,0.00,,FEW,0.00,VWS V14.01,2013-02-21 10:27:00,
2013-02-21 02:32:00,35.9,34.3,29.97,South,185,0.0,0.0,94,0.00,,FEW,0.00,VWS V14.01,2013-02-21 10:32:00,
2013-02-21 02:37:00,36.0,34.4,29.97,South,185,0.0,0.0,94,0.00,,FEW,0.00,VWS V14.01,2013-02-21 10:37:00,
2013-02-21 02:42:00,36.0,34.4,29.97,South,185,0.0,0.0,94,0.00,,FEW,0.00,VWS V14.01,2013-02-21 10:42:00,
2013-02-21 02:47:00,36.0,34.4,29.97,South,185,0.0,0.0,94,0.00,,FEW,0.00,VWS V14.01,2013-02-21 10:47:00,
2013-02-21 02:52:00,36.2,34.6,29.97,South,185,0.0,0.0,94,0.00,,FEW,0.00,VWS V14.01,2013-02-21 10:52:00,
2013-02-21 02:57:00,36.2,34.6,29.97,South,185,0.0,0.0,94,0.00,,FEW,0.00,VWS V14.01,2013-02-21 10:57:00,
2013-02-21 03:02:00,36.3,34.7,29.97,South,185,0.0,0.0,94,0.00,,FEW,0.00,VWS V14.01,2013-02-21 11:02:00,
2013-02-21 03:07:00,36.5,34.9,29.97,South,185,0.0,0.0,94,0.00,,FEW,0.00,VWS V14.01,2013-02-21 11:07:00,
2013-02-21 03:12:00,36.5,34.9,29.97,South,185,0.0,0.0,94,0.00,,FEW,0.00,VWS V14.01,2013-02-21 11:12:00,
2013-02-21 03:17:00,36.6,35.3,29.98,South,185,0.0,0.0,95,0.00,,FEW,0.00,VWS V14.01,2013-02-21 11:17:00,
2013-02-21 03:22:00,36.6,35.0,29.98,South,185,0.0,0.0,94,0.00,,FEW,0.00,VWS V14.01,2013-02-21 11:22:00,
2013-02-21 03:27:00,36.8,35.2,29.98,South,185,0.0,0.0,94,0.00,,FEW,0.00,VWS V14.01,2013-02-21 11:27:00,
2013-02-21 03:33:00,36.8,35.5,29.97,South,185,0.0,0.0,95,0.00,,FEW,0.00,VWS V14.01,2013-02-21 11:33:00,
2013-02-21 03:38:00,37.0,35.7,29.97,South,185,0.0,1.0,95,0.00,,FEW,0.00,VWS V14.01,2013-02-21 11:38:00,
2013-02-21 03:43:00,37.2,35.9,29.97,South,185,0.0,1.0,95,0.00,,FEW,0.00,VWS V14.01,2013-02-21 11:43:00,
2013-02-21 03:48:00,37.2,35.9,29.99,South,185,0.0,1.0,95,0.00,,FEW,0.00,VWS V14.01,2013-02-21 11:48:00,
2013-02-21 03:53:00,37.5,36.2,29.99,South,185,0.0,1.0,95,0.01,,FEW,0.01,VWS V14.01,2013-02-21 11:53:00,
2013-02-21 03:58:00,37.5,36.2,29.99,South,185,0.0,1.0,95,0.01,,FEW,0.01,VWS V14.01,2013-02-21 11:58:00,
2013-02-21 04:03:00,37.5,36.2,29.98,South,185,0.0,0.0,95,0.01,,FEW,0.01,VWS V14.01,2013-02-21 12:03:00,
2013-02-21 04:08:00,37.8,36.5,29.98,South,185,0.0,1.0,95,0.01,,FEW,0.01,VWS V14.01,2013-02-21 12:08:00,
2013-02-21 04:13:00,37.8,36.5,29.98,South,185,0.0,1.0,95,0.01,,FEW,0.01,VWS V14.01,2013-02-21 12:13:00,
2013-02-21 04:18:00,37.9,36.6,29.98,SSW,192,1.0,4.0,95,0.01,,FEW,0.01,VWS V14.01,2013-02-21 12:18:00,
2013-02-21 04:23:00,38.2,36.6,29.98,SSW,194,1.0,4.0,94,0.01,,FEW,0.01,VWS V14.01,2013-02-21 12:23:00,
2013-02-21 04:28:00,38.3,36.5,29.98,SSW,200,0.0,4.0,93,0.01,,FEW,0.01,VWS V14.01,2013-02-21 12:28:00,
2013-02-21 04:33:00,38.6,36.5,29.99,SSE,162,1.0,4.0,92,0.01,,FEW,0.01,VWS V14.01,2013-02-21 12:33:00,
2013-02-21 04:38:00,38.8,36.4,29.99,SSW,199,1.0,4.0,91,0.01,,FEW,0.01,VWS V14.01,2013-02-21 12:38:00,
2013-02-21 04:43:00,38.9,36.2,29.99,South,184,3.0,4.0,90,0.01,,FEW,0.01,VWS V14.01,2013-02-21 12:43:00,
2013-02-21 04:48:00,38.9,35.9,29.99,South,174,2.0,5.0,89,0.01,,FEW,0.01,VWS V14.01,2013-02-21 12:48:00,
2013-02-21 04:53:00,38.9,35.9,29.99,SSW,207,1.0,5.0,89,0.01,,FEW,0.01,VWS V14.01,2013-02-21 12:53:00,
2013-02-21 04:58:00,39.1,35.8,29.99,South,185,1.0,5.0,88,0.01,,FEW,0.01,VWS V14.01,2013-02-21 12:58:00,
2013-02-21 05:03:00,39.1,35.8,30.00,SSW,193,1.0,3.0,88,0.00,,FEW,0.01,VWS V14.01,2013-02-21 13:03:00,
2013-02-21 05:08:00,39.2,36.0,30.00,South,185,2.0,3.0,88,0.00,,FEW,0.01,VWS V14.01,2013-02-21 13:08:00,
2013-02-21 05:13:00,39.3,36.0,30.00,South,184,1.0,4.0,88,0.00,,FEW,0.01,VWS V14.01,2013-02-21 13:13:00,
2013-02-21 05:18:00,39.3,35.8,30.00,South,186,0.0,4.0,87,0.00,,FEW,0.01,VWS V14.01,2013-02-21 13:18:00,
2013-02-21 05:23:00,39.5,36.0,30.00,SSW,199,2.0,4.0,87,0.00,,FEW,0.01,VWS V14.01,2013-02-21 13:23:00,
2013-02-21 05:28:00,39.6,35.8,30.00,SSW,196,4.0,4.0,86,0.00,,FEW,0.01,VWS V14.01,2013-02-21 13:28:00,
2013-02-21 05:33:00,39.6,35.5,30.00,South,184,4.0,7.0,85,0.00,,FEW,0.01,VWS V14.01,2013-02-21 13:33:00,
2013-02-21 05:38:00,39.8,35.7,30.00,South,190,2.0,7.0,85,0.00,,FEW,0.01,VWS V14.01,2013-02-21 13:38:00,
2013-02-21 05:43:00,39.9,35.5,30.00,South,183,3.0,7.0,84,0.00,,FEW,0.01,VWS V14.01,2013-02-21 13:43:00,
2013-02-21 05:48:00,39.9,35.5,30.00,South,189,2.0,7.0,84,0.00,,FEW,0.01,VWS V14.01,2013-02-21 13:48:00,
2013-02-21 05:53:00,40.1,35.7,30.00,South,176,0.0,7.0,84,0.00,,FEW,0.01,VWS V14.01,2013-02-21 13:53:00,
2013-02-21 05:58:00,39.9,35.5,30.00,South,189,2.0,7.0,84,0.00,,FEW,0.01,VWS V14.01,2013-02-21 13:58:00,
2013-02-21 06:03:00,39.8,35.4,30.00,SE,136,1.0,5.0,84,0.00,,FEW,0.01,VWS V14.01,2013-02-21 14:03:00,
2013-02-21 06:08:00,39.9,35.5,30.00,SSW,196,1.0,5.0,84,0.00,,FEW,0.01,VWS V14.01,2013-02-21 14:08:00,
2013-02-21 06:13:00,39.9,35.5,30.00,SSW,195,1.0,5.0,84,0.00,,FEW,0.01,VWS V14.01,2013-02-21 14:13:00,
2013-02-21 06:19:00,39.9,35.2,30.00,SSW,195,2.0,5.0,83,0.00,,FEW,0.01,VWS V14.01,2013-02-21 14:19:00,
2013-02-21 06:24:00,39.9,35.2,30.00,South,191,1.0,5.0,83,0.00,,FEW,0.01,VWS V14.01,2013-02-21 14:24:00,
2013-02-21 06:29:00,39.9,35.2,30.00,South,187,3.0,5.0,83,0.00,,FEW,0.01,VWS V14.01,2013-02-21 14:29:00,
2013-02-21 06:34:00,39.9,34.9,30.00,South,180,4.0,4.0,82,0.00,,FEW,0.01,VWS V14.01,2013-02-21 14:34:00,
2013-02-21 06:39:00,39.9,34.9,30.00,SSW,194,1.0,5.0,82,0.00,,FEW,0.01,VWS V14.01,2013-02-21 14:39:00,
2013-02-21 06:44:00,40.1,35.1,30.00,SSW,197,2.0,5.0,82,0.00,,FEW,0.01,VWS V14.01,2013-02-21 14:44:00,
2013-02-21 06:49:00,40.1,35.1,30.01,SSW,195,1.0,6.0,82,0.00,,FEW,0.01,VWS V14.01,2013-02-21 14:49:00,
2013-02-21 06:54:00,39.9,34.9,30.01,SSW,195,0.0,6.0,82,0.00,,FEW,0.01,VWS V14.01,2013-02-21 14:54:00,
2013-02-21 06:59:00,39.8,34.8,30.01,SSW,195,0.0,6.0,82,0.00,,FEW,0.01,VWS V14.01,2013-02-21 14:59:00,
2013-02-21 07:04:00,39.9,35.2,30.01,SSW,195,0.0,2.0,83,0.00,,FEW,0.01,VWS V14.01,2013-02-21 15:04:00,
2013-02-21 07:09:00,39.8,35.4,30.01,SSW,195,2.0,3.0,84,0.00,,FEW,0.01,VWS V14.01,2013-02-21 15:09:00,
2013-02-21 07:14:00,39.8,35.4,30.01,SSW,197,2.0,3.0,84,0.00,,FEW,0.01,VWS V14.01,2013-02-21 15:14:00,
2013-02-21 07:19:00,39.8,35.1,30.02,SSW,197,2.0,3.0,83,0.00,,FEW,0.01,VWS V14.01,2013-02-21 15:19:00,
2013-02-21 07:24:00,39.8,34.8,30.02,SSW,194,1.0,3.0,82,0.00,,FEW,0.01,VWS V14.01,2013-02-21 15:24:00,
2013-02-21 07:29:00,39.8,34.8,30.02,SSW,209,2.0,3.0,82,0.00,,FEW,0.01,VWS V14.01,2013-02-21 15:29:00,
2013-02-21 07:34:00,39.6,34.9,30.02,SSW,193,4.0,7.0,83,0.00,,FEW,0.01,VWS V14.01,2013-02-21 15:34:00,
2013-02-21 07:39:00,39.6,34.9,30.02,SSW,192,8.0,10.0,83,0.00,,FEW,0.01,VWS V14.01,2013-02-21 15:39:00,
2013-02-21 07:44:00,39.5,35.1,30.02,South,189,0.0,10.0,84,0.00,,FEW,0.01,VWS V14.01,2013-02-21 15:44:00,
2013-02-21 07:49:00,39.3,34.9,30.03,South,182,4.0,10.0,84,0.00,,FEW,0.01,VWS V14.01,2013-02-21 15:49:00,
2013-02-21 07:54:00,39.2,35.1,30.03,SSW,194,10.0,11.0,85,0.01,,FEW,0.02,VWS V14.01,2013-02-21 15:54:00,
2013-02-21 07:59:00,38.9,35.1,30.03,SSW,193,10.0,15.0,86,0.01,,FEW,0.02,VWS V14.01,2013-02-21 15:59:00,
2013-02-21 08:04:00,38.8,35.3,30.02,SSW,193,1.0,6.0,87,0.01,,FEW,0.02,VWS V14.01,2013-02-21 16:04:00,
2013-02-21 08:09:00,38.6,35.1,30.02,South,189,5.0,7.0,87,0.01,,FEW,0.02,VWS V14.01,2013-02-21 16:09:00,
2013-02-21 08:14:00,38.8,35.3,30.02,SW,217,1.0,7.0,87,0.01,,FEW,0.02,VWS V14.01,2013-02-21 16:14:00,
2013-02-21 08:19:00,38.8,35.3,30.01,SSE,162,0.0,7.0,87,0.01,,FEW,0.02,VWS V14.01,2013-02-21 16:19:00,
2013-02-21 08:24:00,38.6,35.4,30.01,SSE,159,1.0,7.0,88,0.01,,FEW,0.02,VWS V14.01,2013-02-21 16:24:00,
2013-02-21 08:29:00,38.6,35.4,30.02,South,181,0.0,7.0,88,0.01,,FEW,0.02,VWS V14.01,2013-02-21 16:29:00,
2013-02-21 08:34:00,38.5,35.3,30.02,SSW,194,4.0,4.0,88,0.01,,FEW,0.02,VWS V14.01,2013-02-21 16:34:00,
2013-02-21 08:39:00,38.6,35.4,30.02,South,185,2.0,5.0,88,0.01,,FEW,0.02,VWS V14.01,2013-02-21 16:39:00,
2013-02-21 08:44:00,38.6,35.4,30.02,South,185,0.0,5.0,88,0.01,,FEW,0.02,VWS V14.01,2013-02-21 16:44:00,
2013-02-21 08:49:00,38.6,35.4,30.02,SSW,201,0.0,5.0,88,0.01,,FEW,0.02,VWS V14.01,2013-02-21 16:49:00,
2013-02-21 08:54:00,38.6,35.4,30.02,SSE,159,0.0,5.0,88,0.01,,FEW,0.02,VWS V14.01,2013-02-21 16:54:00,
2013-02-21 08:59:00,38.6,35.4,30.01,South,187,2.0,5.0,88,0.01,,FEW,0.02,VWS V14.01,2013-02-21 16:59:00,
2013-02-21 09:04:00,38.8,35.3,30.01,SSW,192,0.0,3.0,87,0.00,,FEW,0.02,VWS V14.01,2013-02-21 17:04:00,
2013-02-21 09:09:00,38.8,35.3,30.01,SSW,193,0.0,3.0,87,0.00,,FEW,0.02,VWS V14.01,2013-02-21 17:09:00,
2013-02-21 09:14:00,38.8,35.3,30.02,SSW,201,0.0,3.0,87,0.00,,FEW,0.02,VWS V14.01,2013-02-21 17:14:00,
2013-02-21 09:19:00,38.8,35.3,30.02,SW,234,2.0,3.0,87,0.00,,FEW,0.02,VWS V14.01,2013-02-21 17:19:00,
2013-02-21 09:24:00,38.9,35.4,30.02,SW,234,0.0,3.0,87,0.00,,FEW,0.02,VWS V14.01,2013-02-21 17:24:00,
2013-02-21 09:29:00,38.9,35.7,30.02,SW,234,0.0,3.0,88,0.00,,FEW,0.02,VWS V14.01,2013-02-21 17:29:00,
2013-02-21 09:34:00,38.9,35.4,30.02,SW,226,0.0,2.0,87,0.00,,FEW,0.02,VWS V14.01,2013-02-21 17:34:00,
2013-02-21 09:39:00,38.9,35.4,30.02,WSW,258,1.0,2.0,87,0.00,,FEW,0.02,VWS V14.01,2013-02-21 17:39:00,
2013-02-21 09:44:00,38.9,35.4,30.03,SSW,207,0.0,3.0,87,0.00,,FEW,0.02,VWS V14.01,2013-02-21 17:44:00,
2013-02-21 09:49:00,39.1,35.6,30.03,SSW,207,0.0,3.0,87,0.00,,FEW,0.02,VWS V14.01,2013-02-21 17:49:00,
2013-02-21 09:55:00,39.1,35.6,30.03,SSW,207,0.0,3.0,87,0.01,,FEW,0.03,VWS V14.01,2013-02-21 17:55:00,
2013-02-21 10:00:00,39.1,35.6,30.03,SSW,207,0.0,3.0,87,0.01,,FEW,0.03,VWS V14.01,2013-02-21 18:00:00,
2013-02-21 10:05:00,39.1,35.8,30.03,SW,229,0.0,2.0,88,0.01,,FEW,0.03,VWS V14.01,2013-02-21 18:05:00,
2013-02-21 10:10:00,39.2,36.0,30.03,SW,229,0.0,2.0,88,0.01,,FEW,0.03,VWS V14.01,2013-02-21 18:10:00,
2013-02-21 10:15:00,39.2,36.0,30.03,SSW,201,0.0,2.0,88,0.02,,FEW,0.04,VWS V14.01,2013-02-21 18:15:00,
2013-02-21 10:20:00,39.2,36.0,30.03,SE,138,1.0,2.0,88,0.02,,FEW,0.04,VWS V14.01,2013-02-21 18:20:00,
2013-02-21 10:25:00,39.2,36.0,30.03,SE,143,0.0,2.0,88,0.02,,FEW,0.04,VWS V14.01,2013-02-21 18:25:00,
2013-02-21 10:30:00,39.2,36.0,30.03,SE,138,1.0,5.0,88,0.02,,FEW,0.04,VWS V14.01,2013-02-21 18:30:00,
2013-02-21 10:35:00,39.1,35.8,30.03,South,183,3.0,6.0,88,0.02,,FEW,0.04,VWS V14.01,2013-02-21 18:35:00,
2013-02-21 10:40:00,39.1,35.6,30.03,SSW,203,3.0,6.0,87,0.03,,FEW,0.05,VWS V14.01,2013-02-21 18:40:00,
2013-02-21 10:45:00,39.1,35.6,30.02,South,191,1.0,6.0,87,0.03,,FEW,0.05,VWS V14.01,2013-02-21 18:45:00,
2013-02-21 10:50:00,38.9,35.7,30.02,South,187,3.0,6.0,88,0.03,,FEW,0.05,VWS V14.01,2013-02-21 18:50:00,
2013-02-21 10:55:00,38.9,35.7,30.02,SSW,195,3.0,6.0,88,0.03,,FEW,0.05,VWS V14.01,2013-02-21 18:55:00,
2013-02-21 11:00:00,38.8,35.6,30.02,South,189,4.0,7.0,88,0.03,,FEW,0.05,VWS V14.01,2013-02-21 19:00:00,
2013-02-21 11:05:00,38.8,35.6,30.02,SSW,213,1.0,6.0,88,0.03,,FEW,0.06,VWS V14.01,2013-02-21 19:05:00,
2013-02-21 11:10:00,38.9,35.7,30.02,South,188,1.0,6.0,88,0.03,,FEW,0.06,VWS V14.01,2013-02-21 19:10:00,
2013-02-21 11:15:00,38.9,35.7,30.02,SSE,152,1.0,6.0,88,0.03,,FEW,0.06,VWS V14.01,2013-02-21 19:15:00,
2013-02-21 11:20:00,38.9,35.7,30.02,South,188,7.0,7.0,88,0.03,,FEW,0.06,VWS V14.01,2013-02-21 19:20:00,
2013-02-21 11:25:00,39.1,35.8,30.02,South,187,5.0,7.0,88,0.03,,FEW,0.06,VWS V14.01,2013-02-21 19:25:00,
2013-02-21 11:30:00,39.1,35.8,30.02,SSW,204,4.0,7.0,88,0.03,,FEW,0.06,VWS V14.01,2013-02-21 19:30:00,
2013-02-21 11:35:00,39.2,36.0,30.02,South,187,4.0,5.0,88,0.03,,FEW,0.07,VWS V14.01,2013-02-21 19:35:00,
2013-02-21 11:40:00,39.2,36.0,30.02,South,185,3.0,5.0,88,0.03,,FEW,0.07,VWS V14.01,2013-02-21 19:40:00,
2013-02-21 11:45:00,39.3,36.0,30.02,South,185,1.0,5.0,88,0.03,,FEW,0.07,VWS V14.01,2013-02-21 19:45:00,
2013-02-21 11:50:00,39.5,36.2,30.02,South,185,3.0,5.0,88,0.03,,FEW,0.07,VWS V14.01,2013-02-21 19:50:00,
2013-02-21 11:55:00,39.5,36.2,30.02,South,191,2.0,5.0,88,0.04,,FEW,0.08,VWS V14.01,2013-02-21 19:55:00,
2013-02-21 12:00:00,39.6,36.1,30.01,South,185,4.0,5.0,87,0.03,,FEW,0.08,VWS V14.01,2013-02-21 20:00:00,
2013-02-21 12:05:00,39.5,36.0,30.01,South,185,3.0,13.0,87,0.03,,FEW,0.08,VWS V14.01,2013-02-21 20:05:00,
2013-02-21 12:10:00,39.5,36.2,30.01,SSW,198,5.0,13.0,88,0.04,,FEW,0.09,VWS V14.01,2013-02-21 20:10:00,
2013-02-21 12:16:00,39.3,36.0,30.00,SSW,192,7.0,13.0,88,0.04,,FEW,0.09,VWS V14.01,2013-02-21 20:16:00,
2013-02-21 12:21:00,39.3,36.0,30.00,South,191,4.0,13.0,88,0.04,,FEW,0.09,VWS V14.01,2013-02-21 20:21:00,
2013-02-21 12:26:00,39.2,36.2,30.00,South,189,6.0,13.0,89,0.05,,FEW,0.10,VWS V14.01,2013-02-21 20:26:00,
2013-02-21 12:31:00,39.3,36.3,30.00,SE,137,4.0,8.0,89,0.04,,FEW,0.10,VWS V14.01,2013-02-21 20:31:00,
2013-02-21 12:36:00,39.3,36.3,30.00,SSE,163,2.0,9.0,89,0.04,,FEW,0.10,VWS V14.01,2013-02-21 20:36:00,
2013-02-21 12:41:00,39.5,36.8,30.00,SE,141,0.0,9.0,90,0.04,,FEW,0.10,VWS V14.01,2013-02-21 20:41:00,
2013-02-21 12:46:00,39.5,36.5,29.99,ESE,118,5.0,9.0,89,0.04,,FEW,0.10,VWS V14.01,2013-02-21 20:46:00,
2013-02-21 12:51:00,39.6,36.6,29.99,SE,138,2.0,9.0,89,0.04,,FEW,0.10,VWS V14.01,2013-02-21 20:51:00,
2013-02-21 12:56:00,39.8,36.5,29.99,South,189,3.0,9.0,88,0.04,,FEW,0.10,VWS V14.01,2013-02-21 20:56:00,
2013-02-21 13:01:00,39.9,36.6,29.98,South,178,4.0,6.0,88,0.02,,FEW,0.10,VWS V14.01,2013-02-21 21:01:00,
2013-02-21 13:06:00,40.2,36.7,29.98,ESE,114,4.0,7.0,87,0.02,,FEW,0.10,VWS V14.01,2013-02-21 21:06:00,
2013-02-21 13:11:00,40.5,36.3,29.98,SSE,148,3.0,9.0,85,0.02,,FEW,0.10,VWS V14.01,2013-02-21 21:11:00,
2013-02-21 13:16:00,40.8,36.7,29.97,SSW,205,3.0,9.0,85,0.02,,FEW,0.10,VWS V14.01,2013-02-21 21:16:00,
2013-02-21 13:21:00,40.9,36.5,29.97,South,188,3.0,9.0,84,0.02,,FEW,0.10,VWS V14.01,2013-02-21 21:21:00,
2013-02-21 13:26:00,41.1,36.6,29.97,South,186,4.0,9.0,84,0.02,,FEW,0.10,VWS V14.01,2013-02-21 21:26:00,
2013-02-21 13:31:00,41.2,36.1,29.97,South,184,4.0,10.0,82,0.00,,FEW,0.10,VWS V14.01,2013-02-21 21:31:00,
2013-02-21 13:36:00,41.2,35.8,29.97,South,180,2.0,11.0,81,0.00,,FEW,0.10,VWS V14.01,2013-02-21 21:36:00,
2013-02-21 13:41:00,41.2,35.8,29.97,SSW,197,3.0,11.0,81,0.00,,FEW,0.10,VWS V14.01,2013-02-21 21:41:00,
2013-02-21 13:46:00,41.2,35.8,29.97,South,191,2.0,13.0,81,0.00,,FEW,0.10,VWS V14.01,2013-02-21 21:46:00,
2013-02-21 13:51:00,41.1,36.0,29.97,South,190,5.0,13.0,82,0.00,,FEW,0.10,VWS V14.01,2013-02-21 21:51:00,
2013-02-21 13:56:00,40.9,36.1,29.97,SE,128,5.0,13.0,83,0.00,,FEW,0.10,VWS V14.01,2013-02-21 21:56:00,
2013-02-21 14:01:00,40.8,36.0,29.97,SSW,193,3.0,10.0,83,0.01,,FEW,0.11,VWS V14.01,2013-02-21 22:01:00,
2013-02-21 14:06:00,40.6,36.2,29.97,South,174,0.0,10.0,84,0.01,,FEW,0.11,VWS V14.01,2013-02-21 22:06:00,
2013-02-21 14:11:00,40.5,36.0,29.97,SSW,199,4.0,10.0,84,0.01,,FEW,0.11,VWS V14.01,2013-02-21 22:11:00,
2013-02-21 14:16:00,40.5,36.3,29.96,SE,145,1.0,10.0,85,0.01,,FEW,0.11,VWS V14.01,2013-02-21 22:16:00,
2013-02-21 14:21:00,40.5,36.3,29.96,SSE,168,2.0,10.0,85,0.01,,FEW,0.11,VWS V14.01,2013-02-21 22:21:00,
2013-02-21 14:26:00,40.3,36.2,29.96,ESE,115,0.0,10.0,85,0.01,,FEW,0.11,VWS V14.01,2013-02-21 22:26:00,
2013-02-21 14:31:00,40.3,36.5,29.97,ESE,115,0.0,2.0,86,0.02,,FEW,0.12,VWS V14.01,2013-02-21 22:31:00,
2013-02-21 14:36:00,40.3,36.5,29.97,ESE,115,1.0,2.0,86,0.02,,FEW,0.12,VWS V14.01,2013-02-21 22:36:00,
2013-02-21 14:42:00,40.3,36.8,29.97,ESE,122,1.0,2.0,87,0.02,,FEW,0.12,VWS V14.01,2013-02-21 22:42:00,
2013-02-21 14:47:00,40.3,36.8,29.97,SE,124,0.0,2.0,87,0.02,,FEW,0.12,VWS V14.01,2013-02-21 22:47:00,
2013-02-21 14:52:00,40.5,36.9,29.97,SE,124,0.0,3.0,87,0.02,,FEW,0.12,VWS V14.01,2013-02-21 22:52:00,
2013-02-21 14:57:00,40.5,36.9,29.97,SSW,193,0.0,3.0,87,0.02,,FEW,0.12,VWS V14.01,2013-02-21 22:57:00,
2013-02-21 15:02:00,40.5,36.7,29.97,SSW,194,2.0,2.0,86,0.01,,FEW,0.12,VWS V14.01,2013-02-21 23:02:00,
2013-02-21 15:07:00,40.6,36.8,29.97,ESE,116,0.0,2.0,86,0.01,,FEW,0.12,VWS V14.01,2013-02-21 23:07:00,
2013-02-21 15:12:00,40.8,36.9,29.97,South,191,1.0,2.0,86,0.01,,FEW,0.12,VWS V14.01,2013-02-21 23:12:00,
2013-02-21 15:17:00,40.8,36.7,29.97,South,186,2.0,4.0,85,0.01,,FEW,0.12,VWS V14.01,2013-02-21 23:17:00,
2013-02-21 15:22:00,40.9,36.5,29.97,SSW,197,2.0,5.0,84,0.01,,FEW,0.12,VWS V14.01,2013-02-21 23:22:00,
2013-02-21 15:27:00,41.1,36.3,29.97,SSW,195,5.0,6.0,83,0.01,,FEW,0.12,VWS V14.01,2013-02-21 23:27:00,
2013-02-21 15:32:00,41.3,36.5,29.97,SE,128,2.0,5.0,83,0.00,,FEW,0.12,VWS V14.01,2013-02-21 23:32:00,
2013-02-21 15:37:00,41.5,36.1,29.97,South,191,4.0,10.0,81,0.00,,FEW,0.12,VWS V14.01,2013-02-21 23:37:00,
2013-02-21 15:42:00,41.6,36.2,29.97,SSW,192,3.0,10.0,81,0.00,,FEW,0.12,VWS V14.01,2013-02-21 23:42:00,
2013-02-21 15:47:00,41.8,36.4,29.98,SSW,205,2.0,10.0,81,0.00,,FEW,0.12,VWS V14.01,2013-02-21 23:47:00,
2013-02-21 15:52:00,41.8,36.4,29.98,South,183,1.0,10.0,81,0.00,,FEW,0.12,VWS V14.01,2013-02-21 23:52:00,
2013-02-21 15:57:00,41.8,36.4,29.98,SSW,193,2.0,10.0,81,0.00,,FEW,0.12,VWS V14.01,2013-02-21 23:57:00,
2013-02-21 16:02:00,41.8,36.1,29.98,SSW,194,1.0,4.0,80,0.00,,FEW,0.12,VWS V14.01,2013-02-22 00:02:00,
2013-02-21 16:07:00,41.9,36.2,29.98,SSW,199,5.0,6.0,80,0.00,,FEW,0.12,VWS V14.01,2013-02-22 00:07:00,
2013-02-21 16:12:00,41.9,35.9,29.98,SSW,197,6.0,6.0,79,0.00,,FEW,0.12,VWS V14.01,2013-02-22 00:12:00,
2013-02-21 16:17:00,42.1,35.8,29.99,South,191,4.0,12.0,78,0.00,,FEW,0.12,VWS V14.01,2013-02-22 00:17:00,
2013-02-21 16:22:00,42.2,35.5,29.99,SSW,195,4.0,12.0,77,0.00,,FEW,0.12,VWS V14.01,2013-02-22 00:22:00,
2013-02-21 16:27:00,42.2,35.8,29.99,South,185,3.0,12.0,78,0.00,,FEW,0.12,VWS V14.01,2013-02-22 00:27:00,
2013-02-21 16:32:00,42.3,35.6,29.99,SW,216,6.0,7.0,77,0.00,,FEW,0.12,VWS V14.01,2013-02-22 00:32:00,
2013-02-21 16:37:00,42.3,35.6,29.99,South,183,6.0,7.0,77,0.00,,FEW,0.12,VWS V14.01,2013-02-22 00:37:00,
2013-02-21 16:43:00,42.3,35.3,29.99,South,191,6.0,9.0,76,0.00,,FEW,0.12,VWS V14.01,2013-02-22 00:43:00,
2013-02-21 16:48:00,42.3,35.6,29.98,South,187,2.0,10.0,77,0.00,,FEW,0.12,VWS V14.01,2013-02-22 00:48:00,
2013-02-21 16:53:00,42.3,35.6,29.98,South,185,0.0,10.0,77,0.00,,FEW,0.12,VWS V14.01,2013-02-22 00:53:00,
2013-02-21 16:58:00,42.2,35.5,29.98,SSE,159,1.0,10.0,77,0.00,,FEW,0.12,VWS V14.01,2013-02-22 00:58:00,
2013-02-21 17:03:00,42.3,35.6,29.98,SSW,200,3.0,5.0,77,0.00,,FEW,0.12,VWS V14.01,2013-02-22 01:03:00,
2013-02-21 17:08:00,42.3,35.6,29.98,SSW,197,2.0,7.0,77,0.00,,FEW,0.12,VWS V14.01,2013-02-22 01:08:00,
2013-02-21 17:13:00,42.2,35.5,29.98,SSW,204,0.0,7.0,77,0.00,,FEW,0.12,VWS V14.01,2013-02-22 01:13:00,
2013-02-21 17:18:00,42.1,35.8,29.98,South,191,2.0,7.0,78,0.00,,FEW,0.12,VWS V14.01,2013-02-22 01:18:00,
2013-02-21 17:23:00,41.9,35.5,29.98,South,179,2.0,7.0,78,0.00,,FEW,0.12,VWS V14.01,2013-02-22 01:23:00,
2013-02-21 17:28:00,41.8,35.8,29.98,SW,222,2.0,7.0,79,0.00,,FEW,0.12,VWS V14.01,2013-02-22 01:28:00,
2013-02-21 17:33:00,41.6,35.9,29.98,SSW,195,3.0,6.0,80,0.00,,FEW,0.12,VWS V14.01,2013-02-22 01:33:00,
2013-02-21 17:38:00,41.6,35.9,29.98,South,181,1.0,6.0,80,0.00,,FEW,0.12,VWS V14.01,2013-02-22 01:38:00,
2013-02-21 17:43:00,41.5,35.8,29.98,SSW,199,3.0,6.0,80,0.00,,FEW,0.12,VWS V14.01,2013-02-22 01:43:00,
2013-02-21 17:48:00,41.3,35.9,30.00,South,180,1.0,6.0,81,0.01,,FEW,0.13,VWS V14.01,2013-02-22 01:48:00,
2013-02-21 17:53:00,41.2,36.1,30.00,SW,214,2.0,6.0,82,0.01,,FEW,0.13,VWS V14.01,2013-02-22 01:53:00,
2013-02-21 17:58:00,41.1,36.3,30.00,SSW,197,0.0,6.0,83,0.01,,FEW,0.13,VWS V14.01,2013-02-22 01:58:00,
2013-02-21 18:03:00,40.9,36.5,30.00,SSW,209,0.0,2.0,84,0.01,,FEW,0.13,VWS V14.01,2013-02-22 02:03:00,
2013-02-21 18:08:00,40.8,36.7,30.00,SSW,205,0.0,2.0,85,0.01,,FEW,0.13,VWS V14.01,2013-02-22 02:08:00,
2013-02-21 18:13:00,40.6,36.5,30.00,SSW,195,1.0,4.0,85,0.01,,FEW,0.13,VWS V14.01,2013-02-22 02:13:00,
2013-02-21 18:18:00,40.6,36.8,30.01,SSW,195,0.0,4.0,86,0.01,,FEW,0.13,VWS V14.01,2013-02-22 02:18:00,
2013-02-21 18:23:00,40.5,36.7,30.01,SSW,195,0.0,4.0,86,0.01,,FEW,0.13,VWS V14.01,2013-02-22 02:23:00,
2013-02-21 18:28:00,40.5,36.7,30.01,SSW,199,0.0,4.0,86,0.01,,FEW,0.13,VWS V14.01,2013-02-22 02:28:00,
2013-02-21 18:33:00,40.5,36.7,30.01,SSW,199,0.0,2.0,86,0.01,,FEW,0.13,VWS V14.01,2013-02-22 02:33:00,
2013-02-21 18:38:00,40.5,36.9,30.01,SSW,207,0.0,2.0,87,0.01,,FEW,0.13,VWS V14.01,2013-02-22 02:38:00,
2013-02-21 18:43:00,40.6,36.8,30.01,South,189,1.0,4.0,86,0.01,,FEW,0.13,VWS V14.01,2013-02-22 02:43:00,
2013-02-21 18:48:00,40.8,36.3,30.01,SSW,209,0.0,4.0,84,0.01,,FEW,0.13,VWS V14.01,2013-02-22 02:48:00,
2013-02-21 18:53:00,40.8,36.3,30.01,South,183,1.0,4.0,84,0.01,,FEW,0.13,VWS V14.01,2013-02-22 02:53:00,
2013-02-21 18:58:00,40.9,36.1,30.01,SW,230,0.0,4.0,83,0.01,,FEW,0.13,VWS V14.01,2013-02-22 02:58:00,
2013-02-21 19:03:00,40.9,36.1,30.00,SSW,193,0.0,3.0,83,0.00,,FEW,0.13,VWS V14.01,2013-02-22 03:03:00,
2013-02-21 19:08:00,41.1,36.0,30.00,SSW,206,3.0,5.0,82,0.00,,FEW,0.13,VWS V14.01,2013-02-22 03:08:00,
2013-02-21 19:13:00,41.1,36.0,30.00,SSW,199,2.0,5.0,82,0.00,,FEW,0.13,VWS V14.01,2013-02-22 03:13:00,
2013-02-21 19:19:00,41.2,35.8,30.00,SSW,197,5.0,5.0,81,0.00,,FEW,0.13,VWS V14.01,2013-02-22 03:19:00,
2013-02-21 19:24:00,41.5,35.8,30.00,SSW,195,3.0,7.0,80,0.00,,FEW,0.13,VWS V14.01,2013-02-22 03:24:00,
2013-02-21 19:29:00,41.5,35.8,30.00,South,184,4.0,7.0,80,0.00,,FEW,0.13,VWS V14.01,2013-02-22 03:29:00,
2013-02-21 19:34:00,41.6,35.9,30.00,South,186,2.0,5.0,80,0.00,,FEW,0.13,VWS V14.01,2013-02-22 03:34:00,
2013-02-21 19:39:00,41.6,35.9,30.00,South,191,0.0,5.0,80,0.00,,FEW,0.13,VWS V14.01,2013-02-22 03:39:00,
2013-02-21 19:44:00,41.6,35.9,30.00,SSW,192,0.0,5.0,80,0.00,,FEW,0.13,VWS V14.01,2013-02-22 03:44:00,
2013-02-21 19:49:00,41.5,36.1,30.00,SSW,210,0.0,5.0,81,0.00,,FEW,0.13,VWS V14.01,2013-02-22 03:49:00,
2013-02-21 19:54:00,41.5,36.1,30.00,SSW,210,0.0,5.0,81,0.00,,FEW,0.13,VWS V14.01,2013-02-22 03:54:00,
2013-02-21 19:59:00,41.3,35.9,30.00,SSW,210,0.0,5.0,81,0.00,,FEW,0.13,VWS V14.01,2013-02-22 03:59:00,
2013-02-21 20:04:00,41.3,35.9,30.01,SSW,210,0.0,0.0,81,0.00,,FEW,0.13,VWS V14.01,2013-02-22 04:04:00,
2013-02-21 20:09:00,41.2,36.1,30.01,SSW,210,0.0,0.0,82,0.00,,FEW,0.13,VWS V14.01,2013-02-22 04:09:00,
2013-02-21 20:14:00,41.2,37.0,30.01,SSW,210,0.0,1.0,85,0.00,,FEW,0.13,VWS V14.01,2013-02-22 04:14:00,
2013-02-21 20:19:00,40.9,37.0,30.00,SSW,210,0.0,1.0,86,0.00,,FEW,0.13,VWS V14.01,2013-02-22 04:19:00,
2013-02-21 20:24:00,40.8,37.2,30.00,SSW,210,0.0,1.0,87,0.00,,FEW,0.13,VWS V14.01,2013-02-22 04:24:00,
2013-02-21 20:29:00,40.6,37.0,30.00,SSW,210,0.0,1.0,87,0.00,,FEW,0.13,VWS V14.01,2013-02-22 04:29:00,
2013-02-21 20:34:00,40.5,36.7,30.00,SSW,210,0.0,1.0,86,0.00,,FEW,0.13,VWS V14.01,2013-02-22 04:34:00,
2013-02-21 20:39:00,40.6,36.2,30.00,SSW,195,0.0,3.0,84,0.00,,FEW,0.13,VWS V14.01,2013-02-22 04:39:00,
2013-02-21 20:44:00,40.8,36.0,30.01,SSW,195,0.0,3.0,83,0.00,,FEW,0.13,VWS V14.01,2013-02-22 04:44:00,
2013-02-21 20:49:00,40.9,36.8,30.01,SSW,195,1.0,3.0,85,0.00,,FEW,0.13,VWS V14.01,2013-02-22 04:49:00,
2013-02-21 20:54:00,40.8,36.9,30.01,SSW,195,0.0,3.0,86,0.00,,FEW,0.13,VWS V14.01,2013-02-22 04:54:00,
2013-02-21 20:59:00,40.8,36.7,30.02,SSW,195,0.0,3.0,85,0.00,,FEW,0.13,VWS V14.01,2013-02-22 04:59:00,
2013-02-21 21:00:00,40.8,36.7,30.02,SSW,195,0.0,3.0,85,0.00,,FEW,0.13,VWS V14.01,2013-02-22 05:00:00,
2013-02-21 21:05:00,40.8,36.3,30.02,SSW,193,1.0,2.0,84,0.00,,FEW,0.13,VWS V14.01,2013-02-22 05:05:00,
2013-02-21 21:10:00,40.9,35.8,30.02,SSW,205,0.0,4.0,82,0.00,,FEW,0.13,VWS V14.01,2013-02-22 05:10:00,
2013-02-21 21:15:00,41.2,36.1,30.02,South,190,2.0,6.0,82,0.00,,FEW,0.13,VWS V14.01,2013-02-22 05:15:00,
2013-02-21 21:20:00,41.3,36.2,30.02,South,191,1.0,6.0,82,0.00,,FEW,0.13,VWS V14.01,2013-02-22 05:20:00,
2013-02-21 21:25:00,41.3,36.5,30.02,South,189,2.0,6.0,83,0.00,,FEW,0.13,VWS V14.01,2013-02-22 05:25:00,
2013-02-21 21:30:00,41.3,36.2,30.03,SE,128,1.0,2.0,82,0.00,,FEW,0.13,VWS V14.01,2013-02-22 05:30:00,
2013-02-21 21:35:00,41.5,36.1,30.03,SW,235,4.0,5.0,81,0.00,,FEW,0.13,VWS V14.01,2013-02-22 05:35:00,
2013-02-21 21:40:00,41.6,36.2,30.03,SW,232,3.0,6.0,81,0.00,,FEW,0.13,VWS V14.01,2013-02-22 05:40:00,
2013-02-21 21:45:00,41.6,36.2,30.04,SSW,192,3.0,6.0,81,0.00,,FEW,0.13,VWS V14.01,2013-02-22 05:45:00,
2013-02-21 21:50:00,41.8,36.4,30.04,SSW,202,4.0,6.0,81,0.00,,FEW,0.13,VWS V14.01,2013-02-22 05:50:00,
2013-02-21 21:55:00,41.8,36.4,30.04,SE,126,2.0,6.0,81,0.00,,FEW,0.13,VWS V14.01,2013-02-22 05:55:00,
2013-02-21 22:00:00,41.8,36.4,30.04,SSW,198,3.0,3.0,81,0.00,,FEW,0.13,VWS V14.01,2013-02-22 06:00:00,
2013-02-21 22:05:00,41.8,36.4,30.04,SSW,194,4.0,6.0,81,0.00,,FEW,0.13,VWS V14.01,2013-02-22 06:05:00,
2013-02-21 22:10:00,41.8,36.4,30.04,South,187,2.0,6.0,81,0.00,,FEW,0.13,VWS V14.01,2013-02-22 06:10:00,
2013-02-21 22:15:00,41.8,36.4,30.04,SSW,195,3.0,6.0,81,0.00,,FEW,0.13,VWS V14.01,2013-02-22 06:15:00,
2013-02-21 22:21:00,41.8,36.7,30.04,SSW,195,0.0,6.0,82,0.00,,FEW,0.13,VWS V14.01,2013-02-22 06:21:00,
2013-02-21 22:26:00,41.6,36.5,30.04,SSW,195,0.0,6.0,82,0.00,,FEW,0.13,VWS V14.01,2013-02-22 06:26:00,
2013-02-21 22:31:00,41.6,36.5,30.03,SSW,195,0.0,0.0,82,0.00,,FEW,0.13,VWS V14.01,2013-02-22 06:31:00,
2013-02-21 22:36:00,41.5,36.4,30.03,SSW,195,0.0,0.0,82,0.00,,FEW,0.13,VWS V14.01,2013-02-22 06:36:00,
2013-02-21 22:41:00,41.5,36.4,30.03,SE,128,0.0,6.0,82,0.00,,FEW,0.13,VWS V14.01,2013-02-22 06:41:00,
2013-02-21 22:46:00,41.5,36.4,30.03,SSW,194,1.0,6.0,82,0.00,,FEW,0.13,VWS V14.01,2013-02-22 06:46:00,
2013-02-21 22:51:00,41.5,36.4,30.03,SSW,194,0.0,6.0,82,0.00,,FEW,0.13,VWS V14.01,2013-02-22 06:51:00,
2013-02-21 22:56:00,41.5,36.4,30.03,SSW,194,2.0,6.0,82,0.00,,FEW,0.13,VWS V14.01,2013-02-22 06:56:00,
2013-02-21 23:01:00,41.6,36.5,30.03,SSW,194,0.0,0.0,82,0.00,,FEW,0.13,VWS V14.01,2013-02-22 07:01:00,
2013-02-21 23:06:00,41.5,36.7,30.03,SSW,194,0.0,3.0,83,0.00,,FEW,0.13,VWS V14.01,2013-02-22 07:06:00,
2013-02-21 23:11:00,41.5,36.7,30.03,SSW,194,0.0,3.0,83,0.00,,FEW,0.13,VWS V14.01,2013-02-22 07:11:00,
2013-02-21 23:16:00,41.3,36.8,30.02,SSW,194,0.0,3.0,84,0.00,,FEW,0.13,VWS V14.01,2013-02-22 07:16:00,
2013-02-21 23:21:00,41.3,36.8,30.02,SSW,194,0.0,3.0,84,0.00,,FEW,0.13,VWS V14.01,2013-02-22 07:21:00,
2013-02-21 23:26:00,41.2,36.4,30.02,SSW,204,0.0,3.0,83,0.00,,FEW,0.13,VWS V14.01,2013-02-22 07:26:00,
2013-02-21 23:31:00,41.3,36.5,30.02,SSW,204,1.0,1.0,83,0.00,,FEW,0.13,VWS V14.01,2013-02-22 07:31:00,
2013-02-21 23:36:00,41.3,36.5,30.02,SSW,204,0.0,2.0,83,0.00,,FEW,0.13,VWS V14.01,2013-02-22 07:36:00,
2013-02-21 23:41:00,41.2,36.4,30.02,SSE,149,1.0,3.0,83,0.00,,FEW,0.13,VWS V14.01,2013-02-22 07:41:00,
2013-02-21 23:46:00,41.2,36.4,30.03,SSW,202,0.0,4.0,83,0.00,,FEW,0.13,VWS V14.01,2013-02-22 07:46:00,
2013-02-21 23:51:00,41.2,37.0,30.03,SSW,199,3.0,4.0,85,0.00,,FEW,0.13,VWS V14.01,2013-02-22 07:51:00,
2013-02-21 23:56:00,41.1,36.9,30.03,SE,131,0.0,4.0,85,0.00,,FEW,0.13,VWS V14.01,2013-02-22 07:56:00,